createdAt,value
2018-01-18T00:00:27.623Z,15.80
2018-01-18T00:02:54.057Z,13.20
2018-01-18T00:05:20.332Z,15.32
2018-01-18T00:07:46.597Z,17.20
2018-01-18T00:10:12.806Z,9.75
2018-01-18T00:12:39.964Z,27.05
2018-01-18T00:15:06.959Z,11.63
2018-01-18T00:17:33.037Z,10.55
2018-01-18T00:19:59.823Z,10.68
2018-01-18T00:22:25.848Z,13.50
2018-01-18T00:24:52.128Z,12.85
2018-01-18T00:27:18.214Z,12.55
2018-01-18T00:29:45.232Z,9.70
2018-01-18T00:32:11.295Z,16.00
2018-01-18T00:34:37.536Z,11.63
2018-01-18T00:37:03.769Z,14.68
2018-01-18T00:39:29.996Z,16.87
2018-01-18T00:41:58.408Z,12.02
2018-01-18T00:44:25.642Z,18.05
2018-01-18T00:46:51.905Z,15.38
2018-01-18T00:49:18.181Z,10.15
2018-01-18T00:51:44.432Z,11.02
2018-01-18T00:54:10.680Z,13.57
2018-01-18T00:56:38.790Z,11.60
2018-01-18T00:59:05.124Z,14.98
2018-01-18T01:01:32.242Z,14.38
2018-01-18T01:03:58.597Z,9.65
2018-01-18T01:06:27.516Z,7.95
2018-01-18T01:08:53.777Z,14.38
2018-01-18T01:11:19.990Z,7.80
2018-01-18T01:13:46.302Z,8.57
2018-01-18T01:16:12.589Z,16.85
2018-01-18T01:18:38.871Z,9.50
2018-01-18T01:21:05.128Z,13.27
2018-01-18T01:23:31.501Z,17.17
2018-01-18T01:25:57.834Z,14.80
2018-01-18T01:28:24.140Z,8.00
2018-01-18T01:30:51.017Z,10.43
2018-01-18T01:33:17.241Z,15.75
2018-01-18T01:35:43.495Z,15.13
2018-01-18T01:38:09.768Z,11.50
2018-01-18T01:40:37.057Z,9.40
2018-01-18T01:43:04.012Z,14.90
2018-01-18T01:45:30.968Z,10.13
2018-01-18T01:47:57.224Z,6.60
2018-01-18T01:50:23.461Z,17.90
2018-01-18T01:52:50.521Z,16.23
2018-01-18T01:55:17.669Z,8.85
2018-01-18T01:57:44.402Z,12.63
2018-01-18T02:00:10.854Z,12.95
2018-01-18T02:02:37.161Z,7.25
2018-01-18T02:05:03.409Z,7.85
2018-01-18T02:07:31.317Z,11.50
2018-01-18T02:09:57.752Z,11.00
2018-01-18T02:12:24.269Z,25.55
2018-01-18T02:14:51.072Z,9.23
2018-01-18T02:17:17.104Z,12.40
2018-01-18T02:19:43.178Z,8.43
2018-01-18T02:22:09.899Z,11.32
2018-01-18T02:24:36.004Z,14.57
2018-01-18T02:27:02.813Z,13.93
2018-01-18T02:29:29.208Z,11.57
2018-01-18T02:31:55.475Z,12.52
2018-01-18T02:34:21.714Z,15.95
2018-01-18T02:36:48.979Z,13.15
2018-01-18T02:39:15.221Z,13.82
2018-01-18T02:41:42.216Z,14.65
2018-01-18T02:44:08.449Z,11.75
2018-01-18T02:46:34.652Z,12.57
2018-01-18T02:49:00.877Z,13.50
2018-01-18T02:51:27.446Z,12.68
2018-01-18T02:53:53.684Z,21.00
2018-01-18T02:56:19.934Z,10.43
2018-01-18T02:58:46.159Z,14.00
2018-01-18T03:01:13.716Z,9.13
2018-01-18T03:03:40.969Z,12.07
2018-01-18T03:06:07.202Z,16.85
2018-01-18T03:08:34.160Z,11.98
2018-01-18T03:11:01.114Z,17.45
2018-01-18T03:13:27.388Z,10.75
2018-01-18T03:15:53.793Z,8.93
2018-01-18T03:18:20.257Z,8.85
2018-01-18T03:20:46.553Z,12.63
2018-01-18T03:23:13.491Z,9.50
2018-01-18T03:25:39.548Z,6.82
2018-01-18T03:28:06.608Z,13.98
2018-01-18T03:30:32.653Z,15.00
2018-01-18T03:32:59.180Z,11.50
2018-01-18T03:35:25.337Z,11.35
2018-01-18T03:37:51.593Z,8.93
2018-01-18T03:40:17.852Z,7.22
2018-01-18T03:42:45.051Z,4.82
2018-01-18T03:45:12.017Z,9.93
2018-01-18T03:47:38.278Z,6.47
2018-01-18T03:50:05.401Z,9.80
2018-01-18T03:52:32.372Z,5.22
2018-01-18T03:54:59.136Z,7.85
2018-01-18T03:57:25.378Z,6.57
2018-01-18T03:59:51.688Z,5.43
2018-01-18T04:02:17.958Z,8.52
2018-01-18T04:04:44.208Z,6.80
2018-01-18T04:07:11.160Z,5.15
2018-01-18T04:09:37.492Z,4.65
2018-01-18T04:12:05.798Z,13.45
2018-01-18T04:14:32.764Z,3.25
2018-01-18T04:16:58.977Z,3.92
2018-01-18T04:19:25.288Z,10.60
2018-01-18T04:21:51.928Z,4.87
2018-01-18T04:24:17.968Z,3.72
2018-01-18T04:26:44.086Z,4.22
2018-01-18T04:29:10.493Z,3.97
2018-01-18T04:31:36.586Z,4.78
2018-01-18T04:34:02.638Z,2.70
2018-01-18T04:36:29.045Z,5.35
2018-01-18T04:38:56.036Z,3.65
2018-01-18T04:41:22.748Z,2.30
2018-01-18T04:43:49.746Z,4.03
2018-01-18T04:46:15.992Z,3.37
2018-01-18T04:48:42.252Z,3.00
2018-01-18T04:51:08.513Z,2.67
2018-01-18T04:53:34.767Z,2.15
2018-01-18T04:56:01.849Z,1.60
2018-01-18T04:58:28.125Z,1.37
2018-01-18T05:00:54.416Z,1.50
2018-01-18T05:03:21.420Z,1.40
2018-01-18T05:05:47.764Z,0.80
2018-01-18T05:08:14.016Z,1.87
2018-01-18T05:10:40.724Z,1.17
2018-01-18T05:13:06.948Z,1.10
2018-01-18T05:15:33.656Z,0.73
2018-01-18T05:17:59.894Z,2.40
2018-01-18T05:20:26.848Z,1.30
2018-01-18T05:22:53.296Z,0.62
2018-01-18T05:25:19.545Z,0.90
2018-01-18T05:27:46.567Z,0.70
2018-01-18T05:30:13.882Z,1.08
2018-01-18T05:32:40.959Z,0.60
2018-01-18T05:35:07.172Z,0.70
2018-01-18T05:37:33.444Z,0.70
2018-01-18T05:39:59.718Z,0.60
2018-01-18T05:42:26.001Z,0.73
2018-01-18T05:44:52.253Z,1.48
2018-01-18T05:47:19.030Z,0.70
2018-01-18T05:49:45.354Z,1.52
2018-01-18T05:52:11.634Z,1.40
2018-01-18T05:54:37.875Z,1.67
2018-01-18T05:57:04.145Z,0.90
2018-01-18T05:59:30.796Z,0.55
2018-01-18T06:01:57.052Z,0.60
2018-01-18T06:04:24.045Z,0.70
2018-01-18T06:06:50.308Z,0.60
2018-01-18T06:09:16.544Z,3.15
2018-01-18T06:11:43.105Z,1.08
2018-01-18T06:14:09.360Z,1.77
2018-01-18T06:16:35.595Z,0.82
2018-01-18T06:19:01.865Z,0.70
2018-01-18T06:21:28.922Z,0.80
2018-01-18T06:23:55.159Z,1.65
2018-01-18T06:26:21.420Z,1.60
2018-01-18T06:28:47.668Z,1.30
2018-01-18T06:31:13.949Z,1.62
2018-01-18T06:33:40.170Z,2.25
2018-01-18T06:36:06.905Z,1.60
2018-01-18T06:38:33.162Z,2.00
2018-01-18T06:40:59.383Z,2.80
2018-01-18T06:43:25.632Z,2.37
2018-01-18T06:45:51.918Z,2.55
2018-01-18T06:48:18.280Z,2.30
2018-01-18T06:50:44.569Z,2.25
2018-01-18T06:53:11.068Z,4.87
2018-01-18T06:55:37.284Z,3.40
2018-01-18T06:58:03.565Z,3.28
2018-01-18T07:00:29.777Z,2.78
2018-01-18T07:02:56.050Z,4.22
2018-01-18T07:05:22.330Z,2.40
2018-01-18T07:07:48.548Z,3.15
2018-01-18T07:10:15.537Z,5.55
2018-01-18T07:12:41.793Z,3.10
2018-01-18T07:15:08.042Z,2.60
2018-01-18T07:17:34.262Z,4.35
2018-01-18T07:20:00.913Z,3.15
2018-01-18T07:22:27.174Z,4.95
2018-01-18T07:24:53.445Z,3.20
2018-01-18T07:27:21.153Z,4.35
2018-01-18T07:29:48.210Z,4.50
2018-01-18T07:32:14.465Z,4.22
2018-01-18T07:34:40.727Z,5.95
2018-01-18T07:37:07.019Z,4.78
2018-01-18T07:39:33.373Z,3.62
2018-01-18T07:41:59.615Z,3.90
2018-01-18T07:44:26.271Z,3.75
2018-01-18T07:46:53.318Z,3.65
2018-01-18T07:49:21.149Z,5.37
2018-01-18T07:51:47.454Z,6.32
2018-01-18T07:54:14.633Z,3.70
2018-01-18T07:56:41.697Z,3.50
2018-01-18T07:59:07.970Z,3.37
2018-01-18T08:01:35.304Z,3.35
2018-01-18T08:04:07.842Z,2.70
2018-01-18T08:06:34.937Z,3.30
2018-01-18T08:09:02.566Z,4.50
2018-01-18T08:11:31.488Z,5.87
2018-01-18T08:13:58.488Z,4.20
2018-01-18T08:16:24.810Z,1.92
2018-01-18T08:18:51.782Z,2.50
2018-01-18T08:21:18.425Z,4.22
2018-01-18T08:23:45.618Z,3.80
2018-01-18T08:26:16.160Z,3.72
2018-01-18T08:28:42.501Z,2.03
2018-01-18T08:31:08.772Z,3.30
2018-01-18T08:33:35.024Z,4.00
2018-01-18T08:36:01.381Z,3.22
2018-01-18T08:38:29.184Z,3.60
2018-01-18T08:40:58.260Z,3.27
2018-01-18T08:43:25.487Z,4.07
2018-01-18T08:45:51.533Z,3.17
2018-01-18T08:48:17.585Z,3.50
2018-01-18T08:50:44.196Z,4.40
2018-01-18T08:53:10.501Z,3.30
2018-01-18T08:55:36.817Z,3.97
2018-01-18T08:58:09.850Z,3.67
2018-01-18T09:00:36.120Z,4.65
2018-01-18T09:03:02.561Z,6.12
2018-01-18T09:05:28.750Z,6.20
2018-01-18T09:07:54.999Z,9.80
2018-01-18T09:10:21.238Z,4.40
2018-01-18T09:12:50.900Z,6.03
2018-01-18T09:15:17.723Z,7.57
2018-01-18T09:17:43.968Z,12.30
2018-01-18T09:20:10.016Z,6.10
2018-01-18T09:22:36.106Z,7.13
2018-01-18T09:25:02.189Z,7.03
2018-01-18T09:27:28.261Z,7.40
2018-01-18T09:29:55.053Z,8.23
2018-01-18T09:32:22.048Z,11.07
2018-01-18T09:34:48.261Z,4.70
2018-01-18T09:37:15.250Z,9.93
2018-01-18T09:39:41.497Z,10.67
2018-01-18T09:42:12.580Z,6.93
2018-01-18T09:44:38.624Z,11.33
2018-01-18T09:47:05.260Z,9.50
2018-01-18T09:49:31.301Z,11.53
2018-01-18T09:51:57.584Z,10.87
2018-01-18T09:54:23.815Z,14.00
2018-01-18T09:56:50.064Z,8.07
2018-01-18T09:59:19.402Z,10.10
2018-01-18T10:01:46.526Z,9.27
2018-01-18T10:04:13.496Z,8.70
2018-01-18T10:06:39.724Z,12.00
2018-01-18T10:09:06.720Z,7.23
2018-01-18T10:11:32.964Z,10.87
2018-01-18T10:13:59.207Z,10.43
2018-01-18T10:16:25.485Z,5.67
2018-01-18T10:18:51.718Z,9.77
2018-01-18T10:21:17.972Z,1.90
2018-01-18T10:23:44.761Z,4.47
2018-01-18T10:26:10.817Z,5.03
2018-01-18T10:28:37.075Z,6.20
2018-01-18T10:31:03.332Z,6.47
2018-01-18T10:33:29.596Z,4.73
2018-01-18T10:36:02.880Z,3.70
2018-01-18T10:38:29.254Z,4.63
2018-01-18T10:40:55.495Z,6.30
2018-01-18T10:43:21.803Z,4.32
2018-01-18T10:45:48.791Z,4.43
2018-01-18T10:48:14.988Z,4.15
2018-01-18T10:50:41.412Z,4.10
2018-01-18T10:53:07.551Z,5.25
2018-01-18T10:55:36.080Z,7.12
2018-01-18T10:58:03.239Z,5.05
2018-01-18T11:00:29.477Z,4.68
2018-01-18T11:02:55.633Z,4.72
2018-01-18T11:05:22.651Z,4.40
2018-01-18T11:07:48.954Z,11.07
2018-01-18T11:10:15.188Z,8.98
2018-01-18T11:12:44.692Z,3.37
2018-01-18T11:15:11.593Z,6.35
2018-01-18T11:17:37.840Z,6.20
2018-01-18T11:20:04.644Z,8.40
2018-01-18T11:22:30.744Z,5.95
2018-01-18T11:24:56.825Z,4.75
2018-01-18T11:27:23.084Z,4.20
2018-01-18T11:29:49.341Z,4.12
2018-01-18T11:32:15.649Z,12.02
2018-01-18T11:34:44.396Z,5.75
2018-01-18T11:37:10.872Z,3.03
2018-01-18T11:39:37.126Z,3.17
2018-01-18T11:42:03.376Z,9.52
2018-01-18T11:44:29.429Z,10.98
2018-01-18T11:46:56.528Z,2.75
2018-01-18T11:49:23.172Z,10.23
2018-01-18T11:54:21.096Z,3.03
2018-01-18T11:56:47.345Z,5.78
2018-01-18T11:59:14.128Z,2.58
2018-01-18T12:01:40.187Z,6.35
2018-01-18T12:04:06.244Z,6.32
2018-01-18T12:06:32.321Z,12.60
2018-01-18T12:08:58.388Z,7.37
2018-01-18T12:11:24.652Z,5.75
2018-01-18T12:13:54.441Z,9.65
2018-01-18T12:16:21.306Z,4.12
2018-01-18T12:18:47.568Z,4.87
2018-01-18T12:21:14.544Z,6.43
2018-01-18T12:23:40.809Z,7.10
2018-01-18T12:26:07.027Z,5.65
2018-01-18T12:28:37.400Z,3.25
2018-01-18T12:31:04.853Z,5.15
2018-01-18T12:33:31.093Z,4.75
2018-01-18T12:35:58.497Z,3.67
2018-01-18T12:38:24.752Z,2.97
2018-01-18T12:40:52.272Z,3.53
2018-01-18T12:43:18.426Z,5.15
2018-01-18T12:45:47.619Z,4.45
2018-01-18T12:48:13.925Z,4.10
2018-01-18T12:50:40.278Z,3.28
2018-01-18T12:53:06.556Z,3.65
2018-01-18T12:55:32.838Z,6.03
2018-01-18T12:57:59.462Z,4.97
2018-01-18T13:00:25.723Z,5.37
2018-01-18T13:02:51.982Z,6.12
2018-01-18T13:05:22.180Z,6.90
2018-01-18T13:07:48.473Z,5.07
2018-01-18T13:10:14.780Z,6.12
2018-01-18T13:12:42.177Z,10.50
2018-01-18T13:15:09.263Z,6.62
2018-01-18T13:17:35.497Z,6.82
2018-01-18T13:20:01.780Z,6.82
2018-01-18T13:22:30.243Z,4.87
2018-01-18T13:24:56.681Z,4.40
2018-01-18T13:27:23.021Z,1.15
2018-01-18T13:29:49.285Z,3.37
2018-01-18T13:32:15.328Z,2.87
2018-01-18T13:34:41.374Z,3.17
2018-01-18T13:37:07.636Z,2.50
2018-01-18T13:39:33.896Z,1.67
2018-01-18T13:42:06.615Z,0.93
2018-01-18T13:44:33.700Z,3.67
2018-01-18T13:46:59.937Z,2.87
2018-01-18T13:49:26.166Z,4.18
2018-01-18T13:51:52.409Z,3.10
2018-01-18T13:54:19.464Z,3.83
2018-01-18T13:56:50.141Z,3.55
2018-01-18T13:59:16.345Z,2.80
2018-01-18T14:01:42.591Z,12.37
2018-01-18T14:04:08.638Z,5.53
2018-01-18T14:06:36.608Z,4.93
2018-01-18T14:09:02.944Z,3.47
2018-01-18T14:11:32.409Z,1.90
2018-01-18T14:13:58.797Z,3.80
2018-01-18T14:16:25.046Z,2.95
2018-01-18T14:18:51.269Z,5.93
2018-01-18T14:21:17.396Z,4.30
2018-01-18T14:23:43.429Z,4.95
2018-01-18T14:26:10.425Z,3.80
2018-01-18T14:28:42.073Z,3.78
2018-01-18T14:31:08.309Z,3.37
2018-01-18T14:33:34.531Z,4.10
2018-01-18T14:36:00.761Z,3.78
2018-01-18T14:38:27.021Z,4.32
2018-01-18T14:40:53.282Z,7.75
2018-01-18T14:43:19.513Z,7.95
2018-01-18T14:45:49.281Z,6.78
2018-01-18T14:48:16.757Z,6.68
2018-01-18T14:50:44.178Z,3.45
2018-01-18T14:53:10.465Z,2.03
2018-01-18T14:55:37.457Z,1.95
2018-01-18T14:58:03.836Z,4.25
2018-01-18T15:00:30.148Z,2.60
2018-01-18T15:02:57.984Z,2.50
2018-01-18T15:05:24.367Z,2.60
2018-01-18T15:07:50.710Z,7.25
2018-01-18T15:10:17.062Z,5.32
2018-01-18T15:12:43.425Z,4.55
2018-01-18T15:15:09.882Z,4.32
2018-01-18T15:17:37.141Z,3.83
2018-01-18T15:20:03.373Z,6.90
2018-01-18T15:22:30.345Z,8.48
2018-01-18T15:24:56.393Z,5.50
2018-01-18T15:27:24.445Z,6.70
2018-01-18T15:29:50.666Z,5.65
2018-01-18T15:32:16.899Z,4.25
2018-01-18T15:34:43.635Z,7.10
2018-01-18T15:37:11.161Z,7.62
2018-01-18T15:39:37.457Z,14.18
2018-01-18T15:42:04.888Z,11.57
2018-01-18T15:44:31.912Z,8.15
2018-01-18T15:46:58.026Z,9.10
2018-01-18T15:49:24.068Z,12.32
2018-01-18T15:51:50.406Z,10.50
2018-01-18T15:54:22.754Z,10.18
2018-01-18T15:56:49.053Z,11.20
2018-01-18T15:59:15.316Z,14.90
2018-01-18T16:01:41.553Z,16.23
2018-01-18T16:04:07.999Z,13.35
2018-01-18T16:06:34.264Z,18.20
2018-01-18T16:09:00.430Z,11.85
2018-01-18T16:11:26.575Z,13.35
2018-01-18T16:13:53.378Z,10.10
2018-01-18T16:16:19.433Z,10.02
2018-01-18T16:18:45.496Z,8.52
2018-01-18T16:21:12.552Z,8.85
2018-01-18T16:23:38.558Z,13.65
2018-01-18T16:26:04.872Z,10.38
2018-01-18T16:28:31.125Z,11.10
2018-01-18T16:30:57.348Z,9.77
2018-01-18T16:33:24.872Z,13.23
2018-01-18T16:35:51.174Z,11.23
2018-01-18T16:38:17.414Z,9.55
2018-01-18T16:40:43.752Z,5.95
2018-01-18T16:43:10.027Z,5.00
2018-01-18T16:45:36.263Z,4.15
2018-01-18T16:48:02.537Z,11.70
2018-01-18T16:50:28.790Z,5.47
2018-01-18T16:52:55.750Z,6.53
2018-01-18T16:55:21.985Z,6.03
2018-01-18T16:57:48.988Z,4.97
2018-01-18T17:00:16.881Z,5.35
2018-01-18T17:02:43.123Z,6.70
2018-01-18T17:05:10.090Z,6.40
2018-01-18T17:07:37.054Z,8.25
2018-01-18T17:10:03.304Z,4.72
2018-01-18T17:12:29.565Z,4.10
2018-01-18T17:14:55.835Z,5.97
2018-01-18T17:17:22.914Z,9.63
2018-01-18T17:19:49.291Z,4.72
2018-01-18T17:22:15.580Z,6.62
2018-01-18T17:24:41.812Z,10.43
2018-01-18T17:27:08.414Z,9.25
2018-01-18T17:29:35.363Z,8.07
2018-01-18T17:32:05.049Z,6.10
2018-01-18T17:34:31.299Z,6.05
2018-01-18T17:36:57.528Z,9.10
2018-01-18T17:39:23.775Z,5.55
2018-01-18T17:41:50.196Z,7.28
2018-01-18T17:44:16.448Z,6.32
2018-01-18T17:46:42.808Z,8.50
2018-01-18T17:49:11.252Z,9.75
2018-01-18T17:51:37.546Z,6.28
2018-01-18T17:54:03.753Z,7.70
2018-01-18T17:56:30.004Z,8.10
2018-01-18T17:58:56.230Z,5.75
2018-01-18T18:01:23.400Z,6.35
2018-01-18T18:03:49.650Z,7.53
2018-01-18T18:06:15.908Z,5.10
2018-01-18T18:08:42.320Z,5.15
2018-01-18T18:11:11.132Z,8.52
2018-01-18T18:13:38.097Z,9.20
2018-01-18T18:16:04.333Z,4.15
2018-01-18T18:18:30.537Z,8.10
2018-01-18T18:20:56.763Z,4.75
2018-01-18T18:23:23.000Z,7.80
2018-01-18T18:25:49.969Z,6.15
2018-01-18T18:30:48.321Z,4.72
2018-01-18T18:33:14.540Z,4.97
2018-01-18T18:35:41.517Z,6.72
2018-01-18T18:38:07.757Z,8.43
2018-01-18T18:40:34.736Z,5.87
2018-01-18T18:43:00.972Z,7.97
2018-01-18T18:45:27.932Z,8.45
2018-01-18T18:47:56.729Z,4.90
2018-01-18T18:50:23.716Z,13.13
2018-01-18T18:52:50.688Z,6.90
2018-01-18T18:55:17.673Z,8.57
2018-01-18T18:57:43.958Z,10.73
2018-01-18T19:00:10.164Z,8.32
2018-01-18T19:02:37.132Z,5.60
2018-01-18T19:05:03.516Z,9.73
2018-01-18T19:07:32.020Z,5.72
2018-01-18T19:09:58.263Z,8.30
2018-01-18T19:12:24.494Z,6.55
2018-01-18T19:14:50.765Z,6.87
2018-01-18T19:17:17.011Z,10.90
2018-01-18T19:19:43.248Z,9.70
2018-01-18T19:22:09.483Z,9.07
2018-01-18T19:24:36.499Z,9.98
2018-01-18T19:27:05.977Z,9.80
2018-01-18T19:29:32.193Z,7.70
2018-01-18T19:31:58.425Z,7.75
2018-01-18T19:34:24.660Z,9.10
2018-01-18T19:36:51.680Z,8.07
2018-01-18T19:39:17.924Z,9.80
2018-01-18T19:41:43.997Z,8.77
2018-01-18T19:44:10.253Z,10.60
2018-01-18T19:46:38.100Z,17.67
2018-01-18T19:49:04.342Z,10.93
2018-01-18T19:51:30.572Z,14.75
2018-01-18T19:53:56.796Z,10.45
2018-01-18T19:56:23.066Z,11.27
2018-01-18T19:58:49.405Z,9.45
2018-01-18T20:01:15.640Z,9.02
2018-01-18T20:03:44.773Z,17.67
2018-01-18T20:06:11.049Z,13.48
2018-01-18T20:08:37.293Z,11.12
2018-01-18T20:11:03.526Z,9.98
2018-01-18T20:13:30.545Z,9.43
2018-01-18T20:15:56.771Z,16.45
2018-01-18T20:18:23.748Z,10.23
2018-01-18T20:20:49.993Z,8.82
2018-01-18T20:23:19.782Z,7.18
2018-01-18T20:25:46.100Z,19.75
2018-01-18T20:28:12.308Z,7.50
2018-01-18T20:30:38.528Z,9.63
2018-01-18T20:33:05.320Z,11.20
2018-01-18T20:35:32.094Z,10.60
2018-01-18T20:37:58.137Z,9.00
2018-01-18T20:40:24.413Z,12.00
2018-01-18T20:42:50.728Z,10.55
2018-01-18T20:45:17.010Z,12.25
2018-01-18T20:47:43.256Z,12.02
2018-01-18T20:50:09.513Z,13.02
2018-01-18T20:52:36.610Z,13.20
2018-01-18T20:55:03.590Z,10.15
2018-01-18T20:57:29.876Z,10.80
2018-01-18T20:59:56.107Z,11.85
2018-01-18T21:02:22.360Z,25.35
2018-01-18T21:04:48.492Z,21.37
2018-01-18T21:07:14.610Z,36.72
2018-01-18T21:09:40.845Z,26.30
2018-01-18T21:12:07.862Z,33.22
2018-01-18T21:14:34.832Z,26.73
2018-01-18T21:17:01.820Z,27.73
2018-01-18T21:19:27.928Z,16.33
2018-01-18T21:21:54.760Z,16.00
2018-01-18T21:24:24.552Z,10.40
2018-01-18T21:26:50.832Z,13.38
2018-01-18T21:29:17.845Z,11.15
2018-01-18T21:31:44.349Z,12.52
2018-01-18T21:34:11.365Z,8.65
2018-01-18T21:36:37.631Z,9.30
2018-01-18T21:39:03.889Z,10.25
2018-01-18T21:41:30.126Z,8.15
2018-01-18T21:43:56.397Z,13.23
2018-01-18T21:46:22.652Z,8.15
2018-01-18T21:48:48.888Z,12.52
2018-01-18T21:51:15.340Z,10.70
2018-01-18T21:53:41.400Z,10.57
2018-01-18T21:56:07.500Z,9.45
2018-01-18T21:58:34.276Z,8.20
2018-01-18T22:01:00.463Z,13.15
2018-01-18T22:03:26.784Z,9.63
2018-01-18T22:05:53.064Z,9.18
2018-01-18T22:08:20.219Z,10.85
2018-01-18T22:10:46.461Z,9.23
2018-01-18T22:13:12.692Z,12.07
2018-01-18T22:15:38.933Z,11.07
2018-01-18T22:18:05.197Z,7.50
2018-01-18T22:20:31.445Z,7.22
2018-01-18T22:22:57.692Z,10.60
2018-01-18T22:25:23.899Z,8.10
2018-01-18T22:27:50.208Z,10.15
2018-01-18T22:30:17.190Z,8.63
2018-01-18T22:32:43.473Z,8.40
2018-01-18T22:35:10.488Z,11.25
2018-01-18T22:37:36.753Z,8.77
2018-01-18T22:40:02.810Z,11.95
2018-01-18T22:42:28.879Z,11.48
2018-01-18T22:44:55.719Z,9.27
2018-01-18T22:47:22.557Z,9.82
2018-01-18T22:49:48.586Z,8.77
2018-01-18T22:52:18.912Z,9.30
2018-01-18T22:54:44.950Z,10.23
2018-01-18T22:57:10.988Z,14.57
2018-01-18T22:59:37.026Z,11.07
2018-01-18T23:02:03.065Z,9.80
2018-01-18T23:04:29.147Z,10.50
2018-01-18T23:06:55.781Z,8.02
2018-01-18T23:09:22.014Z,12.07
2018-01-18T23:11:48.235Z,8.00
2018-01-18T23:14:15.848Z,10.40
2018-01-18T23:16:42.057Z,8.00
2018-01-18T23:19:08.279Z,10.13
2018-01-18T23:21:34.585Z,9.05
2018-01-18T23:24:01.554Z,11.70
2018-01-18T23:26:28.732Z,8.43
2018-01-18T23:28:54.980Z,8.80
2018-01-18T23:31:21.020Z,12.73
2018-01-18T23:33:47.058Z,8.02
2018-01-18T23:36:13.115Z,7.62
2018-01-18T23:38:39.337Z,7.05
2018-01-18T23:41:05.611Z,6.55
2018-01-18T23:43:31.840Z,9.00
2018-01-18T23:45:58.053Z,9.68
2018-01-18T23:48:24.512Z,12.57
2018-01-18T23:50:50.761Z,10.20
2018-01-18T23:53:18.637Z,8.45
2018-01-18T23:55:44.684Z,11.23
2018-01-18T23:58:10.708Z,19.40
